Date,TemperatureHighF,TemperatureAvgF,TemperatureLowF,DewpointHighF,DewpointAvgF,DewpointLowF,HumidityHigh,HumidityAvg,HumidityLow,PressureMaxIn,PressureMinIn,WindSpeedMaxMPH,WindSpeedAvgMPH,GustSpeedMaxMPH,PrecipitationSumIn
2014-1-1,43.3,40.1,34.9,41.6,38.5,33.1,95,94,93,30.35,30.19,34,0,4,0.00
2014-1-2,48.0,44.5,41.4,44.5,42.4,39.8,95,92,85,30.19,29.83,10,1,10,0.32
2014-1-3,45.1,40.7,37.9,43.3,38.2,36.0,94,91,83,30.30,29.92,7,0,7,0.30
2014-1-4,43.9,36.9,31.8,38.7,33.9,29.4,94,89,76,30.43,30.30,4,0,4,0.00
2014-1-5,43.5,34.5,28.6,37.3,31.2,26.3,92,88,77,30.48,30.27,4,0,4,0.00
2014-1-6,41.7,35.7,30.7,36.3,32.8,28.7,93,89,78,30.27,30.08,21,0,21,0.00
2014-1-7,45.3,42.4,38.5,43.8,40.5,34.3,95,93,79,30.09,29.93,5,0,5,0.46
2014-1-8,48.0,46.0,43.9,46.7,44.6,42.5,96,95,92,29.95,29.60,12,2,12,0.39
2014-1-9,47.1,44.1,41.4,45.0,41.4,38.6,94,90,87,29.93,29.64,19,3,19,0.06
2014-1-10,49.8,47.3,46.6,47.4,43.8,42.4,92,87,84,30.02,29.47,18,5,19,0.18
2014-1-11,51.8,46.0,42.1,49.7,43.3,39.1,94,90,85,29.72,29.27,23,6,23,0.77
2014-1-12,49.6,45.6,41.4,47.1,42.9,38.9,93,90,86,30.23,29.72,15,3,15,0.06
2014-1-13,51.6,49.8,48.7,48.2,46.5,45.0,89,88,87,30.55,30.23,20,4,20,0.02
2014-1-14,50.4,48.6,46.0,47.4,45.9,43.8,93,90,89,30.60,30.50,7,0,7,0.06
2014-1-15,49.8,45.7,41.7,45.3,42.8,39.3,93,89,82,30.54,30.44,2,0,2,0.00
2014-1-16,43.7,41.7,39.6,41.0,39.4,37.4,93,92,90,30.45,30.30,5,0,5,0.00
2014-1-17,42.6,39.4,37.2,40.2,37.2,35.1,93,92,90,30.30,30.12,4,0,4,0.00
2014-1-18,43.9,39.0,35.2,40.5,36.6,33.1,94,91,87,30.22,30.09,7,1,7,0.00
2014-1-19,42.1,39.0,35.2,40.2,37.0,33.1,94,92,90,30.26,30.10,2,0,2,0.00
2014-1-20,48.7,40.7,35.8,42.2,37.2,33.1,91,87,77,30.30,30.19,4,0,4,0.00
2014-1-21,44.8,39.1,32.7,41.6,36.7,30.4,94,91,87,30.28,30.14,5,0,5,0.00
2014-1-22,48.4,44.4,42.6,45.0,42.0,40.0,94,91,87,30.37,30.27,5,0,4,0.02
2014-1-23,48.0,42.3,37.9,42.0,38.8,35.3,91,87,79,30.42,30.31,5,0,5,0.00
2014-1-24,52.2,40.5,32.7,45.3,37.0,30.4,93,87,76,30.37,30.20,5,0,5,0.00
2014-1-25,50.5,39.5,32.9,42.6,35.6,30.6,92,86,72,30.34,30.19,5,1,5,0.00
2014-1-26,47.5,37.9,31.6,41.6,34.5,29.0,92,87,80,30.20,30.03,10,1,10,0.00
2014-1-27,40.8,37.0,32.9,38.7,34.7,30.3,92,91,89,30.17,30.05,3,0,3,0.00
2014-1-28,48.0,44.3,40.3,44.2,41.6,38.1,93,90,85,30.18,29.82,2,0,2,0.27
2014-1-29,48.6,45.2,43.0,47.5,43.7,41.4,96,94,92,29.83,29.56,9,1,9,0.75
2014-1-30,45.5,43.6,41.7,42.6,40.3,38.5,94,88,82,29.86,29.73,17,4,17,0.02
2014-1-31,43.5,40.8,37.2,40.5,38.2,34.6,93,90,88,30.12,29.86,4,0,4,0.20